createdAt,value
2017-04-18T00:09:07.159Z,1013.6
2017-04-18T00:19:07.215Z,1013.6
2017-04-18T00:29:07.172Z,1013.46
2017-04-18T00:39:07.235Z,1013.53
2017-04-18T00:49:07.183Z,1013.47
2017-04-18T00:59:07.256Z,1013.51
2017-04-18T01:09:07.229Z,1013.56
2017-04-18T01:19:07.277Z,1013.55
2017-04-18T01:29:07.246Z,1013.63
2017-04-18T01:39:07.337Z,1013.72
2017-04-18T01:49:07.310Z,1013.68
2017-04-18T01:59:07.273Z,1013.72
2017-04-18T02:09:07.339Z,1013.68
2017-04-18T02:19:07.299Z,1013.6
2017-04-18T02:29:07.366Z,1013.57
2017-04-18T02:39:07.326Z,1013.6
2017-04-18T02:49:07.273Z,1013.78
2017-04-18T02:59:07.347Z,1013.8
2017-04-18T03:09:07.324Z,1013.86
2017-04-18T03:19:07.374Z,1013.89
2017-04-18T03:29:07.344Z,1013.96
2017-04-18T03:39:07.292Z,1014.03
2017-04-18T03:49:07.358Z,1014
2017-04-18T03:59:07.310Z,1014.12
2017-04-18T04:09:07.378Z,1014.2
2017-04-18T04:19:07.337Z,1014.27
2017-04-18T04:29:07.414Z,1014.39
2017-04-18T04:39:07.366Z,1014.46
2017-04-18T04:49:07.419Z,1014.51
2017-04-18T04:59:07.379Z,1014.65
2017-04-18T05:09:07.454Z,1014.81
2017-04-18T05:19:07.396Z,1014.92
2017-04-18T05:29:09.939Z,1015.05
2017-04-18T05:39:07.437Z,1015.25
2017-04-18T05:49:07.393Z,1015.32
2017-04-18T05:59:07.471Z,1015.47
2017-04-18T06:09:07.422Z,1015.58
2017-04-18T06:19:07.474Z,1015.61
2017-04-18T06:29:07.441Z,1015.79
2017-04-18T06:39:07.506Z,1015.89
2017-04-18T06:49:07.467Z,1016.03
2017-04-18T06:59:07.525Z,1016.12
2017-04-18T07:09:07.493Z,1016.14
2017-04-18T07:19:07.550Z,1016.3
2017-04-18T07:29:07.505Z,1016.4
2017-04-18T07:39:07.582Z,1016.54
2017-04-18T07:49:07.544Z,1016.64
2017-04-18T07:59:07.479Z,1016.77
2017-04-18T08:09:07.497Z,1016.86
2017-04-18T08:19:08.950Z,1016.96
2017-04-18T08:29:07.508Z,1017.09
2017-04-18T08:39:07.515Z,1017.26
2017-04-18T08:49:07.530Z,1017.4
2017-04-18T08:59:07.548Z,1017.53
2017-04-18T09:09:07.541Z,1017.7
2017-04-18T09:19:07.564Z,1017.96
2017-04-18T09:29:07.566Z,1018.09
2017-04-18T09:39:07.570Z,1018.1
2017-04-18T09:49:07.574Z,1018.34
2017-04-18T09:59:07.589Z,1018.43
2017-04-18T10:09:07.599Z,1018.45
2017-04-18T10:19:07.612Z,1018.56
2017-04-18T10:29:07.615Z,1018.6
2017-04-18T10:39:07.633Z,1018.68
2017-04-18T10:49:07.631Z,1018.73
2017-04-18T10:59:07.713Z,1018.85
2017-04-18T11:09:07.659Z,1019.12
2017-04-18T11:19:07.666Z,1019.27
2017-04-18T11:29:07.702Z,1019.35
2017-04-18T11:39:07.678Z,1019.56
2017-04-18T11:49:07.704Z,1019.66
2017-04-18T11:59:07.702Z,1019.54
2017-04-18T12:09:07.814Z,1019.67
2017-04-18T12:19:07.782Z,1019.59
2017-04-18T12:29:08.499Z,1019.84
2017-04-18T12:39:07.887Z,1020.06
2017-04-18T12:49:07.853Z,1020.32
2017-04-18T13:07:26.162Z,1020.02
2017-04-18T13:17:26.157Z,1019.89
2017-04-18T13:27:26.504Z,1020
2017-04-18T13:37:26.197Z,1020.07
2017-04-18T13:47:26.161Z,1020.25
2017-04-18T13:57:26.204Z,1020.22
2017-04-18T14:07:26.165Z,1020.3
2017-04-18T14:17:26.247Z,1020.17
2017-04-18T14:27:26.228Z,1020.07
2017-04-18T14:37:26.191Z,1020.12
2017-04-18T14:47:26.145Z,1020.23
2017-04-18T14:57:26.227Z,1020.35
2017-04-18T15:07:26.175Z,1020.3
2017-04-18T15:17:26.134Z,1020.48
2017-04-18T15:27:26.192Z,1020.56
2017-04-18T15:37:26.158Z,1020.63
2017-04-18T15:47:26.225Z,1020.64
2017-04-18T15:57:26.196Z,1020.79
2017-04-18T16:07:26.227Z,1020.84
2017-04-18T16:17:26.210Z,1020.9
2017-04-18T16:27:26.183Z,1021.14
2017-04-18T16:37:26.128Z,1021.19
2017-04-18T16:47:26.353Z,1021.23
2017-04-18T16:57:26.159Z,1021.32
2017-04-18T17:07:26.217Z,1021.34
2017-04-18T17:17:26.264Z,1021.4
2017-04-18T17:27:26.135Z,1021.52
2017-04-18T17:37:26.209Z,1021.74
2017-04-18T17:47:26.166Z,1021.93
2017-04-18T17:57:26.141Z,1022.02
2017-04-18T18:07:26.183Z,1022.11
2017-04-18T18:17:26.142Z,1022.28
2017-04-18T18:27:26.202Z,1022.37
2017-04-18T18:37:26.166Z,1022.47
2017-04-18T18:47:26.125Z,1022.67
2017-04-18T18:57:26.190Z,1022.81
2017-04-18T19:07:26.192Z,1022.98
2017-04-18T19:17:26.119Z,1023.07
2017-04-18T19:27:26.200Z,1023.23
2017-04-18T19:37:26.136Z,1023.27
2017-04-18T19:47:26.106Z,1023.39
2017-04-18T19:57:26.161Z,1023.55
2017-04-18T20:07:26.146Z,1023.74
2017-04-18T20:17:26.212Z,1023.84
2017-04-18T20:27:26.171Z,1023.96
2017-04-18T20:37:26.106Z,1023.97
2017-04-18T20:47:26.170Z,1024.09
2017-04-18T20:57:26.131Z,1024.11
2017-04-18T21:07:26.201Z,1024.11
2017-04-18T21:17:26.160Z,1024.13
2017-04-18T21:27:26.420Z,1024.32
2017-04-18T21:37:26.185Z,1024.39
2017-04-18T21:47:26.152Z,1024.49
2017-04-18T21:57:26.213Z,1024.5
2017-04-18T22:07:26.267Z,1024.56
2017-04-18T22:17:26.232Z,1024.67
2017-04-18T22:27:26.187Z,1024.8
2017-04-18T22:37:26.250Z,1024.88
2017-04-18T22:47:26.329Z,1024.97
2017-04-18T22:57:26.219Z,1024.97
2017-04-18T23:07:26.230Z,1025.04
2017-04-18T23:17:26.196Z,1025.15
2017-04-18T23:27:26.241Z,1025.2
2017-04-18T23:37:26.308Z,1025.27
2017-04-18T23:47:26.277Z,1025.36
2017-04-18T23:57:26.230Z,1025.43
